createdAt,value
2023-04-14T00:01:02.742Z,9.90
2023-04-14T00:03:31.101Z,9.90
2023-04-14T00:05:59.376Z,9.80
2023-04-14T00:08:27.388Z,9.80
2023-04-14T00:10:55.414Z,9.80
2023-04-14T00:13:24.854Z,9.80
2023-04-14T00:15:52.954Z,9.80
2023-04-14T00:18:21.128Z,9.80
2023-04-14T00:20:49.321Z,9.80
2023-04-14T00:23:18.455Z,9.80
2023-04-14T00:25:46.530Z,9.70
2023-04-14T00:28:14.569Z,9.70
2023-04-14T00:30:44.072Z,9.70
2023-04-14T00:33:12.117Z,9.70
2023-04-14T00:35:40.328Z,9.70
2023-04-14T00:38:08.392Z,9.70
2023-04-14T00:40:36.466Z,9.60
2023-04-14T00:43:04.497Z,9.60
2023-04-14T00:45:32.664Z,9.60
2023-04-14T00:48:02.136Z,9.60
2023-04-14T00:50:30.579Z,9.60
2023-04-14T00:52:59.015Z,9.60
2023-04-14T00:55:27.189Z,9.60
2023-04-14T00:57:56.303Z,9.60
2023-04-14T01:00:24.418Z,9.60
2023-04-14T01:02:52.690Z,9.60
2023-04-14T01:05:22.416Z,9.50
2023-04-14T01:07:51.308Z,9.50
2023-04-14T01:10:19.498Z,9.60
2023-04-14T01:13:07.299Z,9.60
2023-04-14T01:15:40.512Z,9.60
2023-04-14T01:18:18.109Z,9.60
2023-04-14T01:20:51.347Z,9.60
2023-04-14T01:23:28.542Z,9.60
2023-04-14T01:26:19.506Z,9.60
2023-04-14T01:29:07.986Z,9.60
2023-04-14T01:31:42.214Z,9.60
2023-04-14T01:34:15.028Z,9.70
2023-04-14T01:36:45.849Z,9.70
2023-04-14T01:39:20.703Z,9.70
2023-04-14T01:41:53.311Z,9.70
2023-04-14T01:44:23.405Z,9.70
2023-04-14T01:46:57.584Z,9.70
2023-04-14T01:49:28.231Z,9.70
2023-04-14T01:51:57.164Z,9.70
2023-04-14T01:54:26.069Z,9.70
2023-04-14T01:56:57.081Z,9.70
2023-04-14T01:59:27.034Z,9.80
2023-04-14T02:01:57.259Z,9.80
2023-04-14T02:04:28.609Z,9.80
2023-04-14T02:06:57.378Z,9.80
2023-04-14T02:09:27.800Z,9.80
2023-04-14T02:11:56.726Z,9.80
2023-04-14T02:14:25.537Z,9.80
2023-04-14T02:16:57.363Z,9.80
2023-04-14T02:19:28.116Z,9.80
2023-04-14T02:21:57.833Z,9.70
2023-04-14T02:24:26.300Z,9.70
2023-04-14T02:26:59.433Z,9.70
2023-04-14T02:29:28.448Z,9.60
2023-04-14T02:32:01.654Z,9.60
2023-04-14T02:34:33.026Z,9.60
2023-04-14T02:37:10.877Z,9.50
2023-04-14T02:39:43.985Z,9.50
2023-04-14T02:42:15.939Z,9.50
2023-04-14T02:44:49.728Z,9.50
2023-04-14T02:47:26.736Z,9.40
2023-04-14T02:49:57.217Z,9.40
2023-04-14T02:52:28.432Z,9.40
2023-04-14T02:54:57.447Z,9.50
2023-04-14T02:57:26.812Z,9.50
2023-04-14T02:59:57.341Z,9.50
2023-04-14T03:02:28.304Z,9.50
2023-04-14T03:04:56.839Z,9.50
2023-04-14T03:07:26.515Z,9.50
2023-04-14T03:09:55.399Z,9.50
2023-04-14T03:12:26.528Z,9.50
2023-04-14T03:14:55.268Z,9.50
2023-04-14T03:17:24.161Z,9.50
2023-04-14T03:19:54.266Z,9.50
2023-04-14T03:22:23.111Z,9.50
2023-04-14T03:24:51.574Z,9.50
2023-04-14T03:27:25.921Z,9.50
2023-04-14T03:29:56.429Z,9.50
2023-04-14T03:32:27.553Z,9.50
2023-04-14T03:35:01.354Z,9.50
2023-04-14T03:37:32.702Z,9.50
2023-04-14T03:40:05.752Z,9.50
2023-04-14T03:42:35.729Z,9.50
2023-04-14T03:45:04.750Z,9.50
2023-04-14T03:47:33.555Z,9.50
2023-04-14T03:50:04.423Z,9.60
2023-04-14T03:52:35.957Z,9.60
2023-04-14T03:55:07.237Z,9.60
2023-04-14T03:57:37.343Z,9.60
2023-04-14T04:00:09.209Z,9.60
2023-04-14T04:02:38.789Z,9.60
2023-04-14T04:05:10.814Z,9.70
2023-04-14T04:07:41.445Z,9.70
2023-04-14T04:10:10.489Z,9.70
2023-04-14T04:12:39.978Z,9.70
2023-04-14T04:15:09.412Z,9.70
2023-04-14T04:17:39.227Z,9.70
2023-04-14T04:20:13.866Z,9.70
2023-04-14T04:22:43.116Z,9.70
2023-04-14T04:25:12.887Z,9.70
2023-04-14T04:27:40.957Z,9.70
2023-04-14T04:30:10.604Z,9.70
2023-04-14T04:32:39.136Z,9.70
2023-04-14T04:35:10.103Z,9.70
2023-04-14T04:37:39.407Z,9.70
2023-04-14T04:40:08.846Z,9.70
2023-04-14T04:42:42.128Z,9.80
2023-04-14T04:45:11.237Z,9.80
2023-04-14T04:47:39.422Z,9.80
2023-04-14T04:50:09.615Z,9.80
2023-04-14T04:52:37.730Z,9.80
2023-04-14T04:55:06.903Z,9.80
2023-04-14T04:57:34.959Z,9.80
2023-04-14T05:00:03.109Z,9.80
2023-04-14T05:02:31.626Z,9.80
2023-04-14T05:04:59.762Z,9.80
2023-04-14T05:07:29.197Z,9.80
2023-04-14T05:09:57.265Z,9.80
2023-04-14T05:12:25.363Z,9.70
2023-04-14T05:14:53.409Z,9.80
2023-04-14T05:17:21.723Z,9.90
2023-04-14T05:19:50.498Z,9.90
2023-04-14T05:22:18.580Z,9.90
2023-04-14T05:24:51.524Z,9.90
2023-04-14T05:27:19.600Z,9.90
2023-04-14T05:29:47.643Z,10.00
2023-04-14T05:32:15.860Z,10.00
2023-04-14T05:34:43.896Z,10.00
2023-04-14T05:37:12.291Z,10.00
2023-04-14T05:39:40.355Z,10.00
2023-04-14T05:42:09.756Z,10.10
2023-04-14T05:44:37.862Z,10.20
2023-04-14T05:47:06.182Z,10.20
2023-04-14T05:49:34.248Z,10.20
2023-04-14T05:52:02.365Z,10.20
2023-04-14T05:54:30.557Z,10.30
2023-04-14T05:56:58.624Z,10.30
2023-04-14T05:59:28.383Z,10.30
2023-04-14T06:01:56.521Z,10.30
2023-04-14T06:04:24.734Z,10.30
2023-04-14T06:06:52.936Z,10.40
2023-04-14T06:09:21.549Z,10.40
2023-04-14T06:11:49.612Z,10.40
2023-04-14T06:14:17.683Z,10.50
2023-04-14T06:16:47.492Z,10.50
2023-04-14T06:19:15.706Z,10.50
2023-04-14T06:21:43.754Z,10.50
2023-04-14T06:24:11.814Z,10.50
2023-04-14T06:26:39.880Z,10.60
2023-04-14T06:29:08.531Z,10.70
2023-04-14T06:31:36.831Z,10.70
2023-04-14T06:34:06.341Z,10.70
2023-04-14T06:36:34.396Z,10.80
2023-04-14T06:39:02.982Z,10.80
2023-04-14T06:41:31.232Z,10.80
2023-04-14T06:43:59.279Z,10.90
2023-04-14T06:46:27.439Z,10.90
2023-04-14T06:48:55.604Z,10.90
2023-04-14T06:51:25.005Z,11.00
2023-04-14T06:53:53.069Z,11.10
2023-04-14T06:56:21.469Z,11.10
2023-04-14T06:58:49.597Z,11.10
2023-04-14T07:01:17.799Z,11.10
2023-04-14T07:03:46.096Z,11.20
2023-04-14T07:06:17.209Z,11.20
2023-04-14T07:08:46.887Z,11.30
2023-04-14T07:11:15.162Z,11.30
2023-04-14T07:13:43.272Z,11.30
2023-04-14T07:16:11.414Z,11.40
2023-04-14T07:18:39.529Z,11.40
2023-04-14T07:21:07.782Z,11.50
2023-04-14T07:23:35.825Z,11.50
2023-04-14T07:26:05.605Z,11.50
2023-04-14T07:28:33.758Z,11.60
2023-04-14T07:31:09.134Z,11.60
2023-04-14T07:33:37.515Z,11.70
2023-04-14T07:36:06.202Z,11.70
2023-04-14T07:38:34.464Z,11.80
2023-04-14T07:41:06.881Z,11.80
2023-04-14T07:43:36.009Z,11.80
2023-04-14T07:46:05.762Z,11.90
2023-04-14T07:48:35.346Z,11.90
2023-04-14T07:51:04.388Z,11.90
2023-04-14T07:53:32.525Z,12.00
2023-04-14T07:56:01.198Z,12.00
2023-04-14T07:58:30.682Z,12.00
2023-04-14T08:00:58.732Z,12.00
2023-04-14T08:03:27.234Z,12.10
2023-04-14T08:05:57.839Z,12.10
2023-04-14T08:08:26.136Z,12.20
2023-04-14T08:10:54.200Z,12.20
2023-04-14T08:13:22.261Z,12.20
2023-04-14T08:15:51.887Z,12.10
2023-04-14T08:18:20.116Z,12.10
2023-04-14T08:20:48.627Z,12.10
2023-04-14T08:23:17.053Z,12.10
2023-04-14T08:25:45.640Z,12.10
2023-04-14T08:28:13.756Z,12.20
2023-04-14T08:30:41.915Z,12.20
2023-04-14T08:33:11.746Z,12.20
2023-04-14T08:35:42.826Z,12.20
2023-04-14T08:38:11.991Z,12.30
2023-04-14T08:40:41.994Z,12.30
2023-04-14T08:43:12.449Z,12.40
2023-04-14T08:45:43.833Z,12.40
2023-04-14T08:48:16.539Z,12.50
2023-04-14T08:50:54.821Z,12.50
2023-04-14T08:53:24.646Z,12.50
2023-04-14T08:55:54.507Z,12.60
2023-04-14T08:58:23.339Z,12.60
2023-04-14T09:00:53.200Z,12.60
2023-04-14T09:03:23.089Z,12.70
2023-04-14T09:05:53.114Z,12.70
2023-04-14T09:08:21.276Z,12.70
2023-04-14T09:10:50.300Z,12.80
2023-04-14T09:13:20.938Z,12.80
2023-04-14T09:15:49.666Z,12.90
2023-04-14T09:18:19.294Z,12.90
2023-04-14T09:21:29.357Z,13.00
2023-04-14T09:23:41.653Z,13.00
2023-04-14T09:26:10.601Z,13.10
2023-04-14T09:28:38.890Z,13.10
2023-04-14T09:31:08.316Z,13.10
2023-04-14T09:33:41.374Z,13.20
2023-04-14T09:36:19.485Z,13.20
2023-04-14T09:38:48.255Z,13.40
2023-04-14T09:41:19.852Z,13.40
2023-04-14T09:43:47.973Z,13.60
2023-04-14T09:46:16.572Z,13.60
2023-04-14T09:48:55.267Z,13.80
2023-04-14T09:51:33.011Z,14.10
2023-04-14T09:54:03.767Z,14.20
2023-04-14T09:56:34.194Z,14.40
2023-04-14T09:59:03.685Z,14.60
2023-04-14T10:01:34.560Z,15.00
2023-04-14T10:04:03.766Z,15.30
2023-04-14T10:06:33.362Z,15.60
2023-04-14T10:09:02.639Z,15.70
2023-04-14T10:11:32.769Z,15.80
2023-04-14T10:14:02.399Z,15.90
2023-04-14T10:16:31.054Z,16.00
2023-04-14T10:18:59.719Z,16.00
2023-04-14T10:21:28.745Z,16.10
2023-04-14T10:23:58.608Z,16.40
2023-04-14T10:26:27.365Z,16.80
2023-04-14T10:28:57.143Z,17.20
2023-04-14T10:31:29.282Z,17.70
2023-04-14T10:33:57.532Z,18.00
2023-04-14T10:36:27.210Z,18.20
2023-04-14T10:39:04.413Z,18.30
2023-04-14T10:41:46.964Z,18.50
2023-04-14T10:44:25.596Z,18.80
2023-04-14T10:46:56.487Z,19.00
2023-04-14T10:49:32.816Z,19.00
2023-04-14T10:52:02.368Z,19.00
2023-04-14T10:54:50.014Z,18.90
2023-04-14T10:57:19.293Z,18.80
2023-04-14T10:59:48.076Z,18.70
2023-04-14T11:02:26.894Z,18.60
2023-04-14T11:05:04.012Z,18.50
2023-04-14T11:07:33.414Z,18.50
2023-04-14T11:10:26.840Z,18.60
2023-04-14T11:13:01.909Z,18.80
2023-04-14T11:15:46.761Z,18.90
2023-04-14T11:18:16.528Z,19.00
2023-04-14T11:20:45.750Z,18.90
2023-04-14T11:23:15.494Z,18.90
2023-04-14T11:25:45.737Z,18.90
2023-04-14T11:28:13.814Z,18.80
2023-04-14T11:30:44.101Z,18.80
2023-04-14T11:33:12.743Z,18.80
2023-04-14T11:35:43.349Z,18.90
2023-04-14T11:38:12.665Z,19.00
2023-04-14T11:40:40.808Z,19.10
2023-04-14T11:43:10.303Z,19.30
2023-04-14T11:45:43.892Z,19.70
2023-04-14T11:48:13.236Z,19.90
2023-04-14T11:50:42.679Z,20.20
2023-04-14T11:53:12.215Z,20.50
2023-04-14T11:55:44.237Z,20.90
2023-04-14T11:58:15.020Z,21.20
2023-04-14T12:00:44.151Z,21.40
2023-04-14T12:03:12.474Z,21.40
2023-04-14T12:05:41.064Z,21.40
2023-04-14T12:08:12.214Z,21.40
2023-04-14T12:10:42.177Z,21.40
2023-04-14T12:13:11.782Z,21.30
2023-04-14T12:15:42.635Z,21.20
2023-04-14T12:18:13.572Z,21.10
2023-04-14T12:20:44.011Z,20.90
2023-04-14T12:23:12.356Z,20.70
2023-04-14T12:25:41.046Z,20.50
2023-04-14T12:28:09.274Z,20.40
2023-04-14T12:30:38.563Z,20.40
2023-04-14T12:33:12.587Z,20.30
2023-04-14T12:35:41.460Z,20.20
2023-04-14T12:38:13.781Z,20.10
2023-04-14T12:40:43.857Z,20.00
2023-04-14T12:43:12.157Z,19.90
2023-04-14T12:45:44.268Z,19.70
2023-04-14T12:48:15.945Z,19.60
2023-04-14T12:50:44.693Z,19.50
2023-04-14T12:53:26.151Z,19.40
2023-04-14T12:56:10.528Z,19.40
2023-04-14T12:58:40.076Z,19.40
2023-04-14T13:01:08.708Z,19.50
2023-04-14T13:03:46.307Z,19.50
2023-04-14T13:06:17.241Z,19.60
2023-04-14T13:08:46.137Z,19.60
2023-04-14T13:11:14.817Z,19.70
2023-04-14T13:13:44.378Z,19.80
2023-04-14T13:16:16.340Z,19.80
2023-04-14T13:18:47.715Z,19.90
2023-04-14T13:21:16.447Z,19.90
2023-04-14T13:23:44.876Z,20.00
2023-04-14T13:26:13.502Z,20.10
2023-04-14T13:28:41.828Z,20.10
2023-04-14T13:31:11.624Z,20.20
2023-04-14T13:33:39.764Z,20.20
2023-04-14T13:36:09.450Z,20.20
2023-04-14T13:38:37.508Z,20.10
2023-04-14T13:41:05.689Z,20.10
2023-04-14T13:43:34.833Z,20.00
2023-04-14T13:46:03.189Z,20.00
2023-04-14T13:48:32.761Z,20.00
2023-04-14T13:51:01.961Z,20.00
2023-04-14T13:53:31.479Z,20.00
2023-04-14T13:55:59.543Z,20.00
2023-04-14T13:58:27.932Z,20.00
2023-04-14T14:00:56.698Z,19.90
2023-04-14T14:03:26.028Z,19.90
2023-04-14T14:05:54.962Z,19.90
2023-04-14T14:08:23.156Z,19.80
2023-04-14T14:10:54.298Z,19.80
2023-04-14T14:13:22.349Z,19.70
2023-04-14T14:15:50.470Z,19.70
2023-04-14T14:18:18.626Z,19.70
2023-04-14T14:20:47.241Z,19.60
2023-04-14T14:23:16.229Z,19.60
2023-04-14T14:25:44.661Z,19.60
2023-04-14T14:28:14.545Z,19.60
2023-04-14T14:30:42.680Z,19.60
2023-04-14T14:33:10.827Z,19.60
2023-04-14T14:35:39.290Z,19.60
2023-04-14T14:38:07.396Z,19.60
2023-04-14T14:40:35.577Z,19.60
2023-04-14T14:43:03.630Z,19.70
2023-04-14T14:45:33.255Z,19.70
2023-04-14T14:48:01.969Z,19.70
2023-04-14T14:50:30.322Z,19.70
2023-04-14T14:52:58.333Z,19.70
2023-04-14T14:55:27.315Z,19.80
2023-04-14T14:57:55.468Z,19.80
2023-04-14T15:00:23.499Z,19.80
2023-04-14T15:02:53.504Z,19.80
2023-04-14T15:05:21.929Z,19.80
2023-04-14T15:07:50.949Z,19.70
2023-04-14T15:10:19.256Z,19.70
2023-04-14T15:12:47.594Z,19.70
2023-04-14T15:15:15.688Z,19.70
2023-04-14T15:17:44.103Z,19.80
2023-04-14T15:20:14.411Z,19.80
2023-04-14T15:22:42.463Z,19.80
2023-04-14T15:25:11.656Z,19.80
2023-04-14T15:27:39.763Z,19.80
2023-04-14T15:30:09.124Z,19.80
2023-04-14T15:32:37.251Z,19.80
2023-04-14T15:35:06.028Z,19.80
2023-04-14T15:37:35.605Z,19.80
2023-04-14T15:40:04.176Z,19.70
2023-04-14T15:42:32.220Z,19.70
2023-04-14T15:45:00.312Z,19.70
2023-04-14T15:47:28.411Z,19.70
2023-04-14T15:50:08.575Z,19.70
2023-04-14T15:52:39.517Z,19.70
2023-04-14T15:55:08.968Z,19.70
2023-04-14T15:57:37.219Z,19.70
2023-04-14T16:00:07.716Z,19.70
2023-04-14T16:02:36.321Z,19.60
2023-04-14T16:05:05.520Z,19.60
2023-04-14T16:07:33.706Z,19.60
2023-04-14T16:10:05.000Z,19.60
2023-04-14T16:12:35.118Z,19.50
2023-04-14T16:15:03.414Z,19.50
2023-04-14T16:17:31.758Z,19.50
2023-04-14T16:19:59.869Z,19.50
2023-04-14T16:22:29.443Z,19.50
2023-04-14T16:24:57.506Z,19.40
2023-04-14T16:27:26.960Z,19.40
2023-04-14T16:29:54.990Z,19.30
2023-04-14T16:32:23.171Z,19.30
2023-04-14T16:34:51.468Z,19.20
2023-04-14T16:37:19.595Z,19.20
2023-04-14T16:39:47.650Z,19.20
2023-04-14T16:42:18.638Z,19.10
2023-04-14T16:44:48.101Z,19.10
2023-04-14T16:47:16.178Z,19.10
2023-04-14T16:49:46.086Z,19.00
2023-04-14T16:52:14.173Z,18.90
2023-04-14T16:54:42.746Z,18.90
2023-04-14T16:57:10.971Z,18.80
2023-04-14T16:59:39.854Z,18.80
2023-04-14T17:02:09.422Z,18.70
2023-04-14T17:04:37.752Z,18.60
2023-04-14T17:07:06.179Z,18.60
2023-04-14T17:09:34.250Z,18.50
2023-04-14T17:12:02.425Z,18.40
2023-04-14T17:14:30.547Z,18.30
2023-04-14T17:16:58.792Z,18.30
2023-04-14T17:19:28.461Z,18.20
2023-04-14T17:21:56.901Z,18.20
2023-04-14T17:24:25.336Z,18.20
2023-04-14T17:26:53.451Z,18.10
2023-04-14T17:29:21.797Z,18.10
2023-04-14T17:31:49.969Z,18.00
2023-04-14T17:34:19.324Z,17.90
2023-04-14T17:36:49.980Z,17.80
2023-04-14T17:39:20.690Z,17.80
2023-04-14T17:41:49.177Z,17.70
2023-04-14T17:44:17.223Z,17.70
2023-04-14T17:46:46.145Z,17.60
2023-04-14T17:49:14.829Z,17.50
2023-04-14T17:51:43.683Z,17.40
2023-04-14T17:54:13.340Z,17.40
2023-04-14T17:56:41.465Z,17.30
2023-04-14T17:59:10.968Z,17.30
2023-04-14T18:01:39.302Z,17.20
2023-04-14T18:04:07.446Z,17.10
2023-04-14T18:06:35.950Z,17.00
2023-04-14T18:09:04.646Z,17.00
2023-04-14T18:11:34.083Z,16.90
2023-04-14T18:14:02.326Z,16.90
2023-04-14T18:16:31.385Z,16.80
2023-04-14T18:18:59.699Z,16.80
2023-04-14T18:21:28.754Z,16.80
2023-04-14T18:26:27.741Z,16.60
2023-04-14T18:28:57.378Z,16.60
2023-04-14T18:31:25.500Z,16.50
2023-04-14T18:33:53.912Z,16.50
2023-04-14T18:36:22.277Z,16.50
2023-04-14T18:38:50.491Z,16.40
2023-04-14T18:41:19.883Z,16.40
2023-04-14T18:43:47.968Z,16.40
2023-04-14T18:46:17.455Z,16.40
2023-04-14T18:48:45.827Z,16.30
2023-04-14T18:51:13.884Z,16.30
2023-04-14T18:53:43.850Z,16.30
2023-04-14T18:56:11.909Z,16.30
2023-04-14T18:58:40.045Z,16.30
2023-04-14T19:01:08.729Z,16.20
2023-04-14T19:03:38.611Z,16.20
2023-04-14T19:06:06.760Z,16.20
2023-04-14T19:08:34.804Z,16.20
2023-04-14T19:11:03.492Z,16.10
2023-04-14T19:13:31.558Z,16.10
2023-04-14T19:16:06.117Z,16.10
2023-04-14T19:18:34.293Z,16.10
2023-04-14T19:21:03.918Z,16.00
2023-04-14T19:23:31.994Z,16.00
2023-04-14T19:26:00.603Z,15.90
2023-04-14T19:28:29.345Z,15.90
2023-04-14T19:30:57.421Z,15.90
2023-04-14T19:33:26.900Z,15.80
2023-04-14T19:35:55.072Z,15.80
2023-04-14T19:38:24.762Z,15.70
2023-04-14T19:40:53.011Z,15.70
2023-04-14T19:43:21.071Z,15.70
2023-04-14T19:45:57.045Z,15.60
2023-04-14T19:48:26.316Z,15.60
2023-04-14T19:50:55.523Z,15.50
2023-04-14T19:53:25.425Z,15.50
2023-04-14T19:55:55.832Z,15.50
2023-04-14T19:58:24.795Z,15.40
2023-04-14T20:00:55.797Z,15.40
2023-04-14T20:03:24.514Z,15.40
2023-04-14T20:05:54.766Z,15.30
2023-04-14T20:08:24.375Z,15.30
2023-04-14T20:10:54.287Z,15.30
2023-04-14T20:13:24.076Z,15.20
2023-04-14T20:15:54.891Z,15.20
2023-04-14T20:18:23.456Z,15.20
2023-04-14T20:20:52.735Z,15.10
2023-04-14T20:23:20.796Z,15.10
2023-04-14T20:25:51.242Z,15.10
2023-04-14T20:28:20.121Z,15.10
2023-04-14T20:30:50.924Z,15.00
2023-04-14T20:33:21.304Z,15.00
2023-04-14T20:35:51.562Z,14.90
2023-04-14T20:38:19.726Z,14.90
2023-04-14T20:40:49.256Z,14.90
2023-04-14T20:43:17.350Z,14.90
2023-04-14T20:45:45.665Z,14.80
2023-04-14T20:48:13.765Z,14.90
2023-04-14T20:50:41.908Z,14.80
2023-04-14T20:53:09.975Z,14.80
2023-04-14T20:55:41.085Z,14.70
2023-04-14T20:58:10.795Z,14.70
2023-04-14T21:00:38.862Z,14.70
2023-04-14T21:03:07.305Z,14.60
2023-04-14T21:05:35.633Z,14.60
2023-04-14T21:08:03.772Z,14.60
2023-04-14T21:10:31.887Z,14.60
2023-04-14T21:15:30.955Z,14.60
2023-04-14T21:15:53.884Z,14.50
2023-04-14T21:18:23.728Z,14.50
2023-04-14T21:20:51.832Z,14.50
2023-04-14T21:23:20.305Z,14.40
2023-04-14T21:25:48.766Z,14.40
2023-04-14T21:28:16.968Z,14.30
2023-04-14T21:30:45.203Z,14.30
2023-04-14T21:33:14.678Z,14.20
2023-04-14T21:35:43.335Z,14.20
2023-04-14T21:38:11.421Z,14.20
2023-04-14T21:40:39.526Z,14.10
2023-04-14T21:43:07.596Z,14.10
2023-04-14T21:45:36.060Z,14.10
2023-04-14T21:48:04.260Z,14.10
2023-04-14T21:50:34.631Z,14.00
2023-04-14T21:53:04.201Z,14.00
2023-04-14T21:55:32.493Z,14.00
2023-04-14T21:58:00.609Z,14.00
2023-04-14T22:00:28.777Z,13.90
2023-04-14T22:02:56.949Z,13.90
2023-04-14T22:05:25.040Z,13.90
2023-04-14T22:07:55.190Z,13.80
2023-04-14T22:10:23.523Z,13.90
2023-04-14T22:12:52.081Z,13.80
2023-04-14T22:15:20.318Z,13.80
2023-04-14T22:17:48.386Z,13.80
2023-04-14T22:20:16.575Z,13.70
2023-04-14T22:22:44.626Z,13.70
2023-04-14T22:25:14.329Z,13.70
2023-04-14T22:27:42.727Z,13.70
2023-04-14T22:30:12.777Z,13.70
2023-04-14T22:32:40.853Z,13.70
2023-04-14T22:35:09.612Z,13.60
2023-04-14T22:37:37.692Z,13.60
2023-04-14T22:40:06.723Z,13.60
2023-04-14T22:42:36.656Z,13.60
2023-04-14T22:45:05.164Z,13.60
2023-04-14T22:47:33.273Z,13.60
2023-04-14T22:50:03.163Z,13.60
2023-04-14T22:52:31.745Z,13.60
2023-04-14T22:54:59.823Z,13.60
2023-04-14T22:57:27.912Z,13.60
2023-04-14T22:59:57.414Z,13.50
2023-04-14T23:02:26.061Z,13.50
2023-04-14T23:04:54.269Z,13.50
2023-04-14T23:07:22.451Z,13.50
2023-04-14T23:09:50.811Z,13.50
2023-04-14T23:12:18.866Z,13.50
2023-04-14T23:14:46.962Z,13.50
2023-04-14T23:17:16.393Z,13.50
2023-04-14T23:19:44.468Z,13.50
2023-04-14T23:22:12.521Z,13.50
2023-04-14T23:24:40.814Z,13.60
2023-04-14T23:27:08.871Z,13.60
2023-04-14T23:29:37.559Z,13.60
2023-04-14T23:32:06.126Z,13.50
2023-04-14T23:34:35.696Z,13.50
2023-04-14T23:37:03.914Z,13.50
2023-04-14T23:39:32.565Z,13.60
2023-04-14T23:42:00.662Z,13.60
2023-04-14T23:44:29.053Z,13.60
2023-04-14T23:46:57.456Z,13.60
2023-04-14T23:49:35.394Z,13.60
2023-04-14T23:52:05.629Z,13.60
2023-04-14T23:54:33.696Z,13.60
2023-04-14T23:57:01.725Z,13.60
2023-04-14T23:59:30.010Z,13.60
